Time;durP1;ratioP1;P1;durP2;ratioP2;P2;SDS_P1;SDS_P2;PMS_P1;PMS_P2;Temp;Humidity;BMP_temperature;BMP_pressure;BME280_temperature;BME280_humidity;BME280_pressure;Samples;Min_cycle;Max_cycle;Signal;HPM_P1;HPM_P2
2021/06/20 00:02:33;;;;;;;10.70;9.48;;;;;;;24.31;61.32;99632.94;10533346;28;20052;-73
2021/06/20 00:07:36;;;;;;;9.48;8.98;;;;;;;24.16;62.01;99619.97;10550068;28;20040;-73
2021/06/20 00:12:39;;;;;;;9.77;9.18;;;;;;;24.22;62.04;99615.03;10549401;28;20074;-73
2021/06/20 00:17:41;;;;;;;12.18;11.30;;;;;;;24.07;61.88;99615.47;10547664;28;20040;-74
2021/06/20 00:22:44;;;;;;;9.02;8.40;;;;;;;24.12;61.70;99607.81;10550644;28;20500;-74
2021/06/20 00:27:46;;;;;;;10.57;9.88;;;;;;;24.16;61.32;99600.31;10547838;28;20040;-74
2021/06/20 00:32:48;;;;;;;10.25;9.48;;;;;;;23.90;62.14;99597.41;10548359;28;20055;-74
2021/06/20 00:37:50;;;;;;;9.48;8.88;;;;;;;23.82;62.02;99603.53;10546873;22;20048;-84
2021/06/20 00:42:52;;;;;;;11.30;10.40;;;;;;;23.72;62.58;99591.09;10524747;28;20061;-85
2021/06/20 00:47:55;;;;;;;9.85;9.05;;;;;;;23.68;62.55;99585.16;10543667;28;20044;-83
2021/06/20 00:52:59;;;;;;;10.63;10.02;;;;;;;23.66;62.69;99576.44;10543952;28;20052;-86
2021/06/20 00:58:02;;;;;;;9.90;9.27;;;;;;;23.66;62.76;99571.91;10561454;28;20128;-82
2021/06/20 01:03:06;;;;;;;12.37;9.43;;;;;;;23.50;63.11;99562.72;10561064;28;20046;-83
2021/06/20 01:08:10;;;;;;;9.52;8.93;;;;;;;23.59;62.62;99560.00;10562811;28;20042;-83
2021/06/20 01:13:16;;;;;;;9.65;9.05;;;;;;;23.64;62.21;99557.81;10573994;28;20058;-84
2021/06/20 01:18:18;;;;;;;10.23;9.63;;;;;;;23.80;61.69;99551.81;10565517;28;20040;-82
2021/06/20 01:23:20;;;;;;;10.25;9.40;;;;;;;23.78;61.80;99539.56;10559298;28;20051;-84
2021/06/20 01:28:27;;;;;;;9.90;9.23;;;;;;;23.55;62.37;99538.97;10538308;28;20082;-84
2021/06/20 01:33:28;;;;;;;10.68;10.15;;;;;;;23.30;63.54;99524.34;10534121;28;20043;-84
2021/06/20 01:38:30;;;;;;;9.85;9.25;;;;;;;23.48;62.39;99511.91;10554644;28;20032;-85
2021/06/20 01:43:31;;;;;;;9.43;8.80;;;;;;;23.15;63.77;99500.66;10558355;28;20109;-83
2021/06/20 01:48:36;;;;;;;11.23;10.38;;;;;;;23.40;62.74;99495.66;10535597;28;20046;-83
2021/06/20 01:53:37;;;;;;;10.52;9.93;;;;;;;23.32;62.36;99491.00;10551569;28;20047;-82
2021/06/20 01:58:39;;;;;;;11.05;10.35;;;;;;;23.16;62.66;99499.66;10553295;28;20040;-84
2021/06/20 02:03:40;;;;;;;11.13;10.43;;;;;;;22.83;63.84;99492.84;10571174;28;20044;-86
2021/06/20 02:08:42;;;;;;;11.40;10.63;;;;;;;22.61;64.73;99493.09;10551908;28;20036;-83
2021/06/20 02:13:44;;;;;;;11.02;10.23;;;;;;;22.70;64.60;99497.63;10550310;28;20052;-84
2021/06/20 02:18:45;;;;;;;10.48;9.88;;;;;;;22.90;63.80;99503.88;10550648;28;20036;-83
2021/06/20 02:23:47;;;;;;;11.60;10.88;;;;;;;22.72;64.23;99516.25;10550176;28;20073;-83
2021/06/20 02:28:48;;;;;;;10.90;10.20;;;;;;;22.49;65.31;99499.56;10550720;28;20110;-82
2021/06/20 02:33:50;;;;;;;11.68;11.07;;;;;;;22.37;65.21;99496.16;10549767;28;20097;-83
2021/06/20 02:38:51;;;;;;;11.57;10.88;;;;;;;22.33;65.32;99497.41;10555610;28;20206;-84
2021/06/20 02:43:55;;;;;;;10.57;9.98;;;;;;;22.36;64.24;99502.50;10563241;28;20043;-83
2021/06/20 02:48:56;;;;;;;9.68;9.07;;;;;;;22.39;64.04;99499.53;10552611;28;20060;-82
2021/06/20 02:53:58;;;;;;;10.45;9.85;;;;;;;22.68;63.04;99510.31;10540283;28;20059;-84
2021/06/20 02:58:59;;;;;;;9.98;9.32;;;;;;;22.28;63.84;99513.91;10550845;28;20066;-83
2021/06/20 03:04:02;;;;;;;10.13;9.52;;;;;;;22.46;63.28;99507.88;10549945;28;20043;-83
2021/06/20 03:09:04;;;;;;;10.30;9.70;;;;;;;22.37;63.66;99506.88;10550478;28;20040;-84
2021/06/20 03:14:06;;;;;;;9.75;9.15;;;;;;;22.54;63.29;99518.75;10550753;28;20089;-83
2021/06/20 03:19:08;;;;;;;10.93;10.23;;;;;;;22.50;63.27;99544.97;10526657;22;20046;-73
2021/06/20 03:24:09;;;;;;;11.05;10.30;;;;;;;22.19;64.69;99562.06;10501195;28;20497;-72
2021/06/20 03:29:11;;;;;;;10.82;10.07;;;;;;;22.05;64.62;99548.00;10496636;28;20044;-73
2021/06/20 03:34:13;;;;;;;10.85;10.25;;;;;;;22.19;63.85;99533.44;10496969;28;20040;-74
2021/06/20 03:39:14;;;;;;;9.65;8.95;;;;;;;22.22;63.84;99501.03;10497774;28;20504;-73
2021/06/20 03:44:16;;;;;;;10.77;10.10;;;;;;;22.28;64.14;99472.88;10499458;28;20452;-74
2021/06/20 03:49:18;;;;;;;10.73;9.93;;;;;;;22.55;62.62;99427.53;10496493;28;20102;-73
2021/06/20 03:54:21;;;;;;;9.35;8.77;;;;;;;22.74;61.79;99447.28;10498170;28;20213;-73
2021/06/20 03:59:24;;;;;;;9.25;8.65;;;;;;;22.73;61.86;99453.63;10495503;28;20052;-73
2021/06/20 04:04:26;;;;;;;10.20;9.35;;;;;;;22.74;61.63;99463.38;10501189;28;20421;-73
2021/06/20 04:09:27;;;;;;;9.90;9.20;;;;;;;22.97;60.22;99463.97;10506136;28;20072;-73
2021/06/20 04:14:30;;;;;;;8.90;8.40;;;;;;;22.91;60.92;99460.84;10504384;28;20068;-72
2021/06/20 04:19:32;;;;;;;8.48;7.78;;;;;;;23.07;59.73;99467.50;10502518;28;20037;-72
2021/06/20 04:24:34;;;;;;;7.03;6.53;;;;;;;23.27;58.99;99468.31;10504826;28;20048;-73
2021/06/20 04:29:35;;;;;;;6.80;6.30;;;;;;;23.29;59.36;99477.06;10505054;28;20047;-72
2021/06/20 04:34:37;;;;;;;7.75;7.22;;;;;;;23.25;58.97;99463.09;10502116;28;20509;-73
2021/06/20 04:39:38;;;;;;;7.57;7.18;;;;;;;23.54;57.96;99457.66;10502177;28;20036;-72
2021/06/20 04:44:44;;;;;;;6.38;5.95;;;;;;;23.95;56.86;99454.72;10502489;28;20098;-73
2021/06/20 04:49:46;;;;;;;6.38;5.97;;;;;;;23.91;57.58;99457.72;10503348;28;20413;-73
2021/06/20 04:54:50;;;;;;;6.47;6.07;;;;;;;24.17;55.66;99454.31;10520823;28;20055;-73
2021/06/20 04:59:54;;;;;;;6.55;6.15;;;;;;;24.23;56.44;99458.25;10504081;28;20070;-73
2021/06/20 05:04:56;;;;;;;6.00;5.60;;;;;;;24.81;55.60;99464.13;10501590;28;20112;-73
2021/06/20 05:09:57;;;;;;;5.53;5.22;;;;;;;25.19;53.27;99467.50;10520410;28;20044;-73
2021/06/20 05:14:59;;;;;;;6.10;5.68;;;;;;;25.28;54.46;99460.31;10503785;28;20114;-74
2021/06/20 05:20:00;;;;;;;5.80;5.30;;;;;;;25.86;51.46;99476.72;10502492;28;20047;-73
2021/06/20 05:25:03;;;;;;;5.82;5.25;;;;;;;25.56;52.24;99488.78;10483293;28;20052;-73
2021/06/20 05:30:06;;;;;;;4.80;4.60;;;;;;;25.82;51.65;99479.91;10517302;28;20154;-73
2021/06/20 05:35:08;;;;;;;4.50;4.20;;;;;;;26.10;52.31;99494.00;10502443;28;20048;-73
2021/06/20 05:40:10;;;;;;;5.15;4.75;;;;;;;26.43;50.20;99492.28;10502039;28;20611;-73
2021/06/20 05:45:12;;;;;;;5.20;4.80;;;;;;;26.83;50.03;99496.97;10499880;28;20508;-73
2021/06/20 05:50:14;;;;;;;5.07;4.63;;;;;;;26.46;50.81;99496.53;10502476;28;20047;-72
2021/06/20 05:55:16;;;;;;;5.10;4.80;;;;;;;26.58;50.72;99497.91;10502430;28;20083;-72
2021/06/20 06:00:19;;;;;;;5.00;4.50;;;;;;;26.75;49.95;99491.56;10503476;28;20041;-72
2021/06/20 06:05:20;;;;;;;5.65;5.15;;;;;;;26.98;49.98;99491.75;10501096;28;20575;-72
2021/06/20 06:10:23;;;;;;;5.65;5.25;;;;;;;27.05;49.98;99487.38;10501521;28;20036;-72
2021/06/20 06:15:26;;;;;;;6.13;4.45;;;;;;;27.37;49.51;99485.72;10501016;28;20048;-72
2021/06/20 06:20:28;;;;;;;4.40;4.00;;;;;;;27.94;46.39;99491.03;10502156;28;20047;-72
2021/06/20 06:25:30;;;;;;;5.45;5.05;;;;;;;28.23;45.91;99490.41;10501133;28;20496;-72
2021/06/20 06:30:32;;;;;;;4.97;4.65;;;;;;;28.07;46.79;99490.50;10499162;28;20418;-71
2021/06/20 06:35:33;;;;;;;4.72;4.32;;;;;;;28.57;45.73;99471.19;10499410;28;20048;-72
2021/06/20 06:40:36;;;;;;;4.95;4.63;;;;;;;29.07;45.37;99471.72;10501505;28;20047;-71
2021/06/20 06:45:37;;;;;;;5.90;5.47;;;;;;;29.22;46.18;99469.91;10499602;28;20067;-72
2021/06/20 06:50:40;;;;;;;5.85;5.28;;;;;;;29.59;44.86;99473.63;10498722;28;20131;-72
2021/06/20 06:55:42;;;;;;;4.97;4.57;;;;;;;29.82;45.78;99474.41;10500498;28;20053;-72
2021/06/20 07:00:43;;;;;;;6.63;6.20;;;;;;;30.24;43.15;99480.19;10498407;28;20139;-72
2021/06/20 07:05:45;;;;;;;5.30;4.90;;;;;;;30.13;44.58;99476.06;10500152;28;20464;-73
2021/06/20 07:10:46;;;;;;;6.53;6.03;;;;;;;30.18;43.33;99475.53;10497868;28;20059;-72
2021/06/20 07:15:48;;;;;;;5.70;5.20;;;;;;;29.49;44.58;99476.59;10500288;28;20440;-72
2021/06/20 07:20:50;;;;;;;5.65;5.20;;;;;;;29.34;45.86;99479.25;10497492;28;20041;-72
2021/06/20 07:25:52;;;;;;;5.57;5.28;;;;;;;29.19;46.19;99481.09;10500146;28;20502;-72
2021/06/20 07:30:53;;;;;;;5.32;4.93;;;;;;;29.50;46.84;99486.38;10498560;28;20045;-73
2021/06/20 07:35:57;;;;;;;5.20;4.78;;;;;;;29.85;45.80;99487.56;10500455;28;20401;-71
2021/06/20 07:40:59;;;;;;;5.45;5.05;;;;;;;30.25;44.78;99493.56;10506831;28;20036;-72
2021/06/20 07:46:00;;;;;;;5.18;4.78;;;;;;;29.80;45.25;99487.31;10506290;28;20110;-72
2021/06/20 07:51:02;;;;;;;5.40;5.00;;;;;;;29.38;46.38;99491.41;10507624;28;20083;-73
2021/06/20 07:56:04;;;;;;;5.68;5.25;;;;;;;29.45;47.81;99477.97;10505667;28;20058;-72
2021/06/20 08:01:06;;;;;;;5.60;5.30;;;;;;;29.56;48.49;99495.66;10505383;28;20037;-72
2021/06/20 08:06:07;;;;;;;5.05;4.65;;;;;;;29.88;46.83;99489.06;10505948;28;20052;-73
2021/06/20 08:11:09;;;;;;;5.32;4.93;;;;;;;30.04;47.04;99494.31;10506681;28;20127;-73
2021/06/20 08:16:11;;;;;;;5.07;4.65;;;;;;;30.67;44.53;99486.56;10504980;28;20049;-72
2021/06/20 08:21:12;;;;;;;5.07;4.68;;;;;;;30.84;45.35;99495.31;10503145;28;20094;-73
2021/06/20 08:26:14;;;;;;;4.95;4.47;;;;;;;31.32;44.11;99496.44;10503095;28;20090;-72
2021/06/20 08:31:15;;;;;;;4.82;4.43;;;;;;;31.58;44.65;99487.69;10487752;28;20494;-72
2021/06/20 08:36:17;;;;;;;5.00;4.70;;;;;;;31.74;45.47;99485.69;10520927;28;20044;-72
2021/06/20 08:41:21;;;;;;;4.70;4.35;;;;;;;32.03;43.98;99474.59;10503753;28;20106;-73
2021/06/20 08:46:27;;;;;;;5.10;4.80;;;;;;;32.44;42.15;99490.09;10503420;28;20075;-72
2021/06/20 08:51:29;;;;;;;4.60;4.32;;;;;;;32.67;42.26;99484.28;10504611;28;20036;-73
2021/06/20 08:56:31;;;;;;;4.38;4.07;;;;;;;32.44;43.45;99481.91;10503464;28;20494;-72
2021/06/20 09:01:34;;;;;;;4.47;4.07;;;;;;;32.88;41.71;99475.13;10499804;28;20044;-73
2021/06/20 09:06:36;;;;;;;4.40;4.00;;;;;;;33.39;41.76;99480.03;10499482;28;20444;-72
2021/06/20 09:11:40;;;;;;;5.07;4.68;;;;;;;32.99;43.97;99481.91;10499866;28;20403;-73
2021/06/20 09:16:54;;;;;;;4.47;4.18;;;;;;;32.55;43.49;99475.91;10515838;22;20047;-73
2021/06/20 09:21:58;;;;;;;4.22;3.92;;;;;;;32.95;44.03;99454.25;10443790;28;20144;-73
2021/06/20 09:27:00;;;;;;;3.53;3.22;;;;;;;33.31;37.11;99458.44;10461420;28;20086;-72
2021/06/20 09:32:07;;;;;;;9.13;2.83;;;;;;;33.60;37.79;99441.69;10462517;28;20045;-73
2021/06/20 09:37:11;;;;;;;3.08;2.90;;;;;;;34.34;35.49;99439.56;10444195;28;20048;-73
2021/06/20 09:42:15;;;;;;;4.32;2.75;;;;;;;34.77;33.91;99433.47;10462443;28;20048;-73
2021/06/20 09:47:19;;;;;;;5.25;3.42;;;;;;;34.87;33.45;99423.72;10461899;28;20055;-74
2021/06/20 09:52:28;;;;;;;3.77;3.40;;;;;;;35.12;33.53;99421.06;10460822;28;20044;-73
2021/06/20 09:57:39;;;;;;;2.80;2.60;;;;;;;35.11;33.18;99419.38;10462192;28;20368;-74
2021/06/20 10:02:43;;;;;;;3.08;2.78;;;;;;;35.32;34.02;99420.88;10443635;28;20041;-73
2021/06/20 10:07:45;;;;;;;6.72;3.55;;;;;;;35.33;33.23;99414.38;10464735;28;20401;-75
2021/06/20 10:12:46;;;;;;;6.38;4.13;;;;;;;35.78;32.87;99416.03;10464523;28;20136;-75
2021/06/20 10:17:58;;;;;;;6.72;3.92;;;;;;;34.57;34.77;99404.41;10463627;28;20049;-75
2021/06/20 10:23:00;;;;;;;6.03;4.10;;;;;;;34.66;34.87;99412.34;10465128;28;20462;-74
2021/06/20 10:28:14;;;;;;;12.05;4.32;;;;;;;35.11;35.37;99411.19;10462086;28;20095;-74
2021/06/20 10:33:18;;;;;;;6.67;4.40;;;;;;;35.69;33.81;99418.22;10461331;28;20465;-74
2021/06/20 10:38:32;;;;;;;6.63;4.45;;;;;;;35.80;34.00;99409.25;10444371;28;20048;-75
2021/06/20 10:43:34;;;;;;;12.03;5.37;;;;;;;36.10;35.32;99414.00;10460752;28;20072;-74
2021/06/20 10:48:36;;;;;;;7.22;4.88;;;;;;;36.66;33.38;99403.75;10462193;28;20052;-74
2021/06/20 10:53:41;;;;;;;5.93;4.10;;;;;;;36.08;34.77;99405.16;10464229;28;20076;-74
2021/06/20 10:58:48;;;;;;;9.20;4.43;;;;;;;35.93;34.69;99411.00;10461678;28;20045;-73
2021/06/20 11:03:53;;;;;;;12.30;4.18;;;;;;;36.41;33.01;99409.38;10459819;28;20052;-74
2021/06/20 11:08:57;;;;;;;7.20;4.30;;;;;;;35.69;34.51;99401.00;10460856;28;20052;-74
2021/06/20 11:13:58;;;;;;;9.55;5.05;;;;;;;35.13;36.24;99398.13;10465021;28;20045;-73
2021/06/20 11:19:12;;;;;;;9.70;4.85;;;;;;;35.52;35.80;99396.13;10468011;28;20498;-74
2021/06/20 11:24:16;;;;;;;8.15;4.53;;;;;;;35.65;36.07;99408.81;10467364;28;20136;-74
2021/06/20 11:29:18;;;;;;;;;;;;;;;34.59;35.85;99396.84;10468130;28;20041;-74
2021/06/20 11:34:21;;;;;;;10.98;4.80;;;;;;;34.48;37.49;99391.25;10465838;28;19963;-73
2021/06/20 11:39:23;;;;;;;15.30;5.53;;;;;;;34.43;38.89;99391.03;10466723;28;20094;-74
2021/06/20 11:44:24;;;;;;;15.15;5.20;;;;;;;34.56;36.42;99394.56;10468587;28;20556;-74
2021/06/20 11:49:26;;;;;;;15.50;5.57;;;;;;;34.63;36.80;99386.34;10468201;28;20048;-74
2021/06/20 11:54:29;;;;;;;18.30;6.05;;;;;;;34.27;36.49;99382.34;10467930;28;20486;-75
2021/06/20 11:59:42;;;;;;;16.80;5.60;;;;;;;34.29;38.01;99382.09;10468590;28;20041;-74
2021/06/20 12:04:45;;;;;;;13.63;5.90;;;;;;;33.68;39.64;99386.09;10467267;28;20057;-74
2021/06/20 12:09:47;;;;;;;10.98;5.35;;;;;;;33.57;38.63;99374.00;10466351;28;20045;-75
2021/06/20 12:15:01;;;;;;;14.85;6.13;;;;;;;33.18;39.45;99387.66;10466841;28;20045;-75
2021/06/20 12:20:03;;;;;;;8.95;4.82;;;;;;;33.52;38.11;99390.13;10468026;28;20057;-73
2021/06/20 12:25:05;;;;;;;17.38;6.13;;;;;;;33.45;37.61;99396.66;10467519;28;20560;-75
2021/06/20 12:30:21;;;;;;;18.42;5.18;;;;;;;33.52;37.75;99392.03;10466023;28;20055;-73
2021/06/20 12:35:26;;;;;;;13.23;5.32;;;;;;;33.48;37.67;99393.50;10465932;28;20063;-72
2021/06/20 12:40:31;;;;;;;15.02;6.10;;;;;;;33.96;37.30;99391.28;10446257;28;20091;-73
2021/06/20 12:45:35;;;;;;;17.55;6.35;;;;;;;34.08;36.74;99397.72;10463256;28;20051;-72
2021/06/20 12:50:37;;;;;;;19.67;6.37;;;;;;;33.96;37.28;99395.91;10462890;28;20483;-73
2021/06/20 12:55:42;;;;;;;13.40;6.43;;;;;;;33.40;40.34;99405.44;10463223;28;20494;-72
2021/06/20 13:00:43;;;;;;;12.50;5.13;;;;;;;33.00;42.01;99400.00;10463765;28;20119;-72
2021/06/20 13:05:45;;;;;;;17.42;6.65;;;;;;;32.79;42.28;99395.56;10461104;28;20172;-72
2021/06/20 13:10:47;;;;;;;8.23;5.18;;;;;;;32.29;43.34;99384.16;10462228;28;20482;-72
2021/06/20 13:15:49;;;;;;;10.18;5.22;;;;;;;32.59;43.02;99394.72;10460514;28;20439;-73
2021/06/20 13:20:50;;;;;;;14.30;6.30;;;;;;;32.71;43.06;99400.38;10462059;28;20045;-72
2021/06/20 13:25:52;;;;;;;13.48;5.97;;;;;;;32.55;44.07;99397.00;10461791;28;20124;-72
2021/06/20 13:30:54;;;;;;;20.45;6.40;;;;;;;32.47;44.05;99389.03;10459971;28;20076;-73
2021/06/20 13:35:56;;;;;;;17.02;6.05;;;;;;;32.91;42.95;99379.50;10458742;28;20057;-72
2021/06/20 13:40:58;;;;;;;14.65;5.38;;;;;;;33.34;41.15;99368.16;10459468;28;20045;-72
2021/06/20 13:45:59;;;;;;;18.00;6.05;;;;;;;33.10;41.41;99378.63;10460440;28;20045;-73
2021/06/20 13:51:01;;;;;;;12.43;6.13;;;;;;;33.39;40.47;99366.44;10459051;28;20495;-72
2021/06/20 13:56:04;;;;;;;16.40;5.20;;;;;;;33.95;40.16;99372.38;10461657;28;20380;-73
2021/06/20 14:01:05;;;;;;;12.75;5.40;;;;;;;34.42;39.47;99376.56;10460690;28;20041;-73
2021/06/20 14:06:07;;;;;;;14.85;5.15;;;;;;;33.86;40.02;99367.16;10459404;28;20059;-71
2021/06/20 14:11:08;;;;;;;18.15;5.82;;;;;;;33.70;41.48;99366.81;10457743;28;20048;-73
2021/06/20 14:16:10;;;;;;;13.85;5.32;;;;;;;33.53;40.68;99361.84;10458555;28;20052;-72
2021/06/20 14:21:12;;;;;;;16.50;6.10;;;;;;;33.14;41.50;99360.00;10457324;28;20069;-72
2021/06/20 14:26:14;;;;;;;9.93;5.20;;;;;;;32.94;42.23;99362.75;10458892;28;20049;-72
2021/06/20 14:31:15;;;;;;;12.30;4.60;;;;;;;32.17;42.82;99353.16;10459442;28;20052;-72
2021/06/20 14:36:21;;;;;;;11.90;5.20;;;;;;;32.01;43.36;99346.22;10456856;28;20529;-71
2021/06/20 14:41:23;;;;;;;14.63;5.35;;;;;;;31.58;44.20;99346.41;10458773;28;20045;-72
2021/06/20 14:46:27;;;;;;;9.60;4.78;;;;;;;31.55;43.27;99337.81;10457940;28;20048;-72
2021/06/20 14:51:30;;;;;;;12.10;4.85;;;;;;;31.50;43.47;99337.59;10458889;28;20044;-72
2021/06/20 14:56:32;;;;;;;10.48;4.63;;;;;;;31.32;44.51;99329.97;10458275;28;20383;-72
2021/06/20 15:01:33;;;;;;;12.80;5.55;;;;;;;31.22;45.40;99329.47;10458892;28;20037;-71
2021/06/20 15:06:35;;;;;;;12.05;4.82;;;;;;;30.93;45.75;99314.22;10458603;28;20049;-72
2021/06/20 15:11:37;;;;;;;15.30;5.38;;;;;;;30.68;46.52;99314.63;10456605;28;20068;-72
2021/06/20 15:16:38;;;;;;;9.82;4.70;;;;;;;30.83;45.84;99306.44;10476335;22;20045;-74
2021/06/20 15:21:40;;;;;;;13.27;5.05;;;;;;;30.88;44.64;99303.97;10539357;28;20046;-74
2021/06/20 15:26:42;;;;;;;8.13;4.65;;;;;;;30.46;45.75;99312.94;10540040;28;20408;-73
2021/06/20 15:31:45;;;;;;;8.88;4.35;;;;;;;30.57;45.95;99313.28;10538988;28;20044;-73
2021/06/20 15:36:47;;;;;;;7.05;4.38;;;;;;;30.59;45.46;99313.94;10539864;28;20390;-72
2021/06/20 15:41:49;;;;;;;13.07;4.72;;;;;;;30.38;46.37;99314.78;10543319;28;20040;-72
2021/06/20 15:46:51;;;;;;;10.50;4.70;;;;;;;30.41;45.51;99308.13;10538862;28;20504;-72
2021/06/20 15:51:53;;;;;;;9.73;4.90;;;;;;;30.30;45.25;99305.94;10539447;28;20042;-73
2021/06/20 15:56:54;;;;;;;8.13;3.58;;;;;;;30.44;44.33;99296.06;10538868;28;20097;-72
2021/06/20 16:01:56;;;;;;;12.48;4.22;;;;;;;30.24;44.80;99280.44;10552366;28;20397;-72
2021/06/20 16:06:59;;;;;;;16.08;4.93;;;;;;;29.95;46.34;99275.94;10546926;28;20062;-73
2021/06/20 16:12:00;;;;;;;9.63;4.25;;;;;;;29.76;46.07;99265.72;10548520;28;20044;-74
2021/06/20 16:17:03;;;;;;;6.10;3.80;;;;;;;29.65;46.02;99267.88;10548427;28;20048;-73
2021/06/20 16:22:05;;;;;;;11.45;5.32;;;;;;;29.85;47.11;99270.00;10548848;28;20056;-73
2021/06/20 16:27:07;;;;;;;10.85;4.13;;;;;;;29.85;44.48;99265.41;10547237;28;20044;-74
2021/06/20 16:32:09;;;;;;;24.88;22.05;;;;;;;30.04;43.16;99268.53;10548130;28;20500;-74
2021/06/20 16:37:16;;;;;;;13.82;3.88;;;;;;;29.88;42.07;99264.19;10554770;28;20044;-73
2021/06/20 16:42:23;;;;;;;9.43;3.22;;;;;;;29.72;41.96;99270.69;10557165;28;20108;-72
2021/06/20 16:47:25;;;;;;;12.85;4.78;;;;;;;29.53;42.23;99265.81;10547639;28;20051;-74
2021/06/20 16:52:28;;;;;;;7.22;3.53;;;;;;;29.57;42.71;99278.00;10545691;28;20481;-72
2021/06/20 16:57:31;;;;;;;9.20;4.88;;;;;;;29.53;41.07;99266.69;10526626;28;20493;-74
2021/06/20 17:02:32;;;;;;;8.50;6.15;;;;;;;29.70;41.84;99274.59;10547924;28;20048;-73
2021/06/20 17:07:34;;;;;;;6.85;4.03;;;;;;;29.93;41.80;99283.44;10548909;28;20074;-73
2021/06/20 17:12:38;;;;;;;11.10;4.40;;;;;;;29.73;41.88;99283.19;10547503;28;20076;-73
2021/06/20 17:17:40;;;;;;;7.07;4.35;;;;;;;29.67;43.65;99285.84;10544965;28;20043;-74
2021/06/20 17:22:53;;;;;;;;;;;;;;;;;;;;;
2021/06/20 17:27:59;;;;;;;10.30;3.45;;;;;;;29.96;42.20;99299.28;10511043;28;20063;-74
2021/06/20 17:33:02;;;;;;;7.20;4.53;;;;;;;29.67;44.22;99297.50;10547882;28;20036;-75
2021/06/20 17:38:03;;;;;;;8.43;3.40;;;;;;;29.49;44.45;99299.75;10542310;28;20505;-75
2021/06/20 17:43:05;;;;;;;4.95;3.72;;;;;;;29.31;45.02;99302.84;10543745;28;20036;-74
2021/06/20 17:48:11;;;;;;;9.10;4.20;;;;;;;29.40;44.02;99309.84;10545433;28;20044;-74
2021/06/20 17:53:13;;;;;;;8.20;4.00;;;;;;;29.32;44.79;99302.66;10543657;28;20075;-74
2021/06/20 17:58:14;;;;;;;6.03;3.97;;;;;;;28.99;46.36;99294.03;10527219;28;20081;-74
2021/06/20 18:03:17;;;;;;;8.13;4.03;;;;;;;28.78;46.66;99293.91;10543171;28;20493;-74
2021/06/20 18:08:20;;;;;;;5.30;3.72;;;;;;;28.63;47.86;99280.34;10541935;28;20522;-74
2021/06/20 18:13:22;;;;;;;5.60;3.65;;;;;;;28.43;47.61;99276.47;10524309;28;20055;-74
2021/06/20 18:18:23;;;;;;;7.85;4.32;;;;;;;28.29;48.96;99272.66;10546300;28;20493;-75
2021/06/20 18:23:25;;;;;;;7.80;3.88;;;;;;;28.49;48.16;99273.03;10541645;28;20052;-75
2021/06/20 18:28:27;;;;;;;9.63;4.07;;;;;;;28.55;48.16;99261.47;10544687;28;20058;-76
2021/06/20 18:33:31;;;;;;;8.50;4.22;;;;;;;28.23;50.02;99267.97;10545402;28;20098;-75
2021/06/20 18:38:32;;;;;;;8.88;4.30;;;;;;;28.01;50.03;99267.78;10544530;28;20044;-74
2021/06/20 18:43:34;;;;;;;6.03;3.70;;;;;;;27.98;50.69;99257.38;10562473;28;20374;-73
2021/06/20 18:48:36;;;;;;;12.43;4.22;;;;;;;28.48;50.04;99247.03;10544387;28;20040;-74
2021/06/20 18:53:38;;;;;;;7.22;4.72;;;;;;;28.27;50.59;99247.69;10543358;28;20047;-74
2021/06/20 18:58:39;;;;;;;6.25;4.28;;;;;;;27.89;52.00;99239.50;10542941;28;20048;-74
2021/06/20 19:03:41;;;;;;;7.18;4.35;;;;;;;27.77;52.27;99240.97;10544602;28;20040;-74
2021/06/20 19:08:43;;;;;;;6.18;4.60;;;;;;;27.56;53.23;99228.06;10543796;28;20498;-73
2021/06/20 19:13:44;;;;;;;5.40;4.38;;;;;;;27.49;52.94;99233.31;10542413;28;20040;-74
2021/06/20 19:18:47;;;;;;;8.85;5.32;;;;;;;27.41;53.38;99231.50;10544040;28;20068;-74
2021/06/20 19:23:49;;;;;;;8.10;4.80;;;;;;;27.30;53.20;99223.78;10543874;28;20051;-74
2021/06/20 19:28:51;;;;;;;6.72;4.85;;;;;;;27.36;53.75;99227.66;10547260;28;20390;-74
2021/06/20 19:33:53;;;;;;;11.20;4.35;;;;;;;27.58;53.57;99247.59;10544867;28;20040;-73
2021/06/20 19:38:54;;;;;;;10.48;5.60;;;;;;;26.98;55.62;99254.41;10552794;28;20040;-75
2021/06/20 19:43:59;;;;;;;8.93;5.22;;;;;;;26.79;55.57;99252.94;10550578;28;20036;-74
2021/06/20 19:49:01;;;;;;;7.37;4.60;;;;;;;26.78;55.62;99272.81;10554945;28;20044;-74
2021/06/20 19:54:02;;;;;;;13.35;5.35;;;;;;;26.74;55.89;99273.31;10552249;28;20040;-75
2021/06/20 19:59:04;;;;;;;10.90;5.93;;;;;;;26.69;56.32;99271.13;10549888;28;20051;-74
2021/06/20 20:04:06;;;;;;;8.52;5.78;;;;;;;26.57;56.22;99277.91;10549555;28;20054;-74
2021/06/20 20:09:08;;;;;;;8.95;6.55;;;;;;;26.75;55.55;99275.88;10552810;28;20108;-73
2021/06/20 20:14:10;;;;;;;17.42;5.32;;;;;;;26.43;56.44;99263.22;10550488;28;20059;-74
2021/06/20 20:19:11;;;;;;;6.32;5.45;;;;;;;26.41;56.67;99254.47;10548968;28;20044;-73
2021/06/20 20:24:13;;;;;;;6.28;5.53;;;;;;;26.34;57.09;99245.34;10549604;28;20113;-74
2021/06/20 20:29:14;;;;;;;8.32;5.57;;;;;;;26.09;57.36;99231.06;10547959;28;20400;-74
2021/06/20 20:34:16;;;;;;;15.18;6.55;;;;;;;25.92;57.78;99225.66;10549666;28;20040;-73
2021/06/20 20:39:18;;;;;;;7.35;6.38;;;;;;;25.73;58.38;99214.34;10547333;28;20417;-73
2021/06/20 20:44:19;;;;;;;10.93;6.10;;;;;;;25.69;58.87;99227.28;10528866;28;20051;-74
2021/06/20 20:49:22;;;;;;;10.18;5.82;;;;;;;25.57;58.98;99217.81;10546956;28;20170;-74
2021/06/20 20:54:24;;;;;;;7.07;6.10;;;;;;;25.63;59.02;99209.94;10550357;28;20050;-73
2021/06/20 20:59:25;;;;;;;9.23;6.57;;;;;;;25.55;58.92;99209.94;10546820;28;20036;-74
2021/06/20 21:04:27;;;;;;;8.30;6.13;;;;;;;25.35;59.16;99200.44;10546570;28;20064;-73
2021/06/20 21:09:29;;;;;;;10.93;6.55;;;;;;;25.37;59.38;99191.22;10546973;28;20102;-73
2021/06/20 21:14:31;;;;;;;10.98;6.35;;;;;;;25.23;59.57;99180.22;10546403;28;20044;-73
2021/06/20 21:19:34;;;;;;;8.43;5.60;;;;;;;25.06;60.27;99166.72;10560990;22;20036;-73
2021/06/20 21:24:35;;;;;;;11.88;5.63;;;;;;;24.94;60.71;99157.25;10547069;28;20485;-74
2021/06/20 21:29:37;;;;;;;12.85;5.88;;;;;;;25.02;60.22;99159.97;10547026;28;20047;-73
2021/06/20 21:34:39;;;;;;;7.57;5.60;;;;;;;24.85;60.13;99153.69;10546944;28;20434;-73
2021/06/20 21:39:40;;;;;;;10.88;5.85;;;;;;;24.52;61.45;99138.38;10547137;28;20044;-71
2021/06/20 21:44:42;;;;;;;7.90;6.00;;;;;;;24.88;60.33;99137.25;10546149;28;20050;-72
2021/06/20 21:49:46;;;;;;;11.35;5.88;;;;;;;24.81;60.57;99133.50;10510729;28;20138;-72
2021/06/20 21:54:57;;;;;;;9.02;5.72;;;;;;;24.60;59.93;99133.91;10544602;28;20440;-71
2021/06/20 21:59:58;;;;;;;9.80;5.30;;;;;;;24.74;59.07;99119.00;10543397;28;20513;-72
2021/06/20 22:05:00;;;;;;;9.15;5.45;;;;;;;24.68;59.18;99114.28;10545994;28;20048;-72
2021/06/20 22:10:04;;;;;;;9.57;5.38;;;;;;;24.63;59.32;99111.25;10545439;28;20102;-73
2021/06/20 22:15:08;;;;;;;8.93;6.05;;;;;;;24.61;59.21;99103.38;10545007;28;20051;-74
2021/06/20 22:20:11;;;;;;;8.65;5.97;;;;;;;24.64;59.01;99092.28;10544309;28;20040;-73
2021/06/20 22:25:16;;;;;;;11.38;5.82;;;;;;;24.57;59.13;99099.31;10546331;28;20052;-73
2021/06/20 22:30:21;;;;;;;8.33;5.37;;;;;;;24.44;59.86;99089.97;10545987;28;20044;-72
2021/06/20 22:35:23;;;;;;;6.93;5.40;;;;;;;24.46;59.76;99086.16;10544263;28;20067;-73
2021/06/20 22:40:26;;;;;;;8.25;5.03;;;;;;;24.66;59.37;99082.22;10544147;28;20040;-73
2021/06/20 22:45:28;;;;;;;9.10;5.55;;;;;;;24.51;60.04;99074.91;10527073;28;20410;-72
2021/06/20 22:50:30;;;;;;;9.88;5.20;;;;;;;24.30;60.42;99078.81;10543903;28;20067;-71
2021/06/20 22:55:31;;;;;;;11.35;6.25;;;;;;;24.27;60.22;99084.50;10542623;28;20052;-71
2021/06/20 23:00:39;;;;;;;9.63;5.88;;;;;;;24.28;60.30;99077.28;10543937;28;20055;-72
2021/06/20 23:05:41;;;;;;;8.50;5.50;;;;;;;24.04;61.51;99061.88;10543778;28;20048;-72
2021/06/20 23:10:44;;;;;;;8.88;5.47;;;;;;;24.23;59.71;99045.56;10558039;28;20507;-71
2021/06/20 23:15:47;;;;;;;13.35;5.68;;;;;;;24.45;58.86;99027.22;10558834;28;20071;-74
2021/06/20 23:20:49;;;;;;;7.78;5.43;;;;;;;24.27;59.57;99021.91;10557174;28;20036;-72
2021/06/20 23:25:50;;;;;;;12.27;5.88;;;;;;;24.34;59.21;99009.50;10559131;28;20051;-72